Nixa, Missouri
Current Conditions -  °F | °C
As of 3:52 AM on Sunday 25 Jan 2015 (Local Time) from KSGF Reporting Station
Overcast Overcast  
Wind Chill: 44°   Ceiling: 6500
Heat Index: 49°   Visibility: 10mi
Dew Point: 32°   Wind: 12mph
Humidity: 52%   Direction: 240°WSW
Pressure: 29.67"   Gusts: NA
Location:  37.04°N, 93.29°W
Report Text: KSGF 250952Z 24010KT 10SM BKN065 OVC080 09/00 A2967 RMK AO2 RAB09E18 SLP045 P0000 T00940000
Loading
Personal Weather Stations






























Interactive Weather Map New forecast layout! Learn more

10-Day Weather Forecast

Advertisements
Track Severe Weather on mobile